• Join FlightAware (Why Join?)
  • Login
  • US Flag 
08:36AM EDT


 

Airport Tracker/Info


-or-


 

Live Flight TrackerFlight Track Log ✈ SLG1 ✈ 05-May-2012 ✈ CYYN - CYXE

Flight Track Log - Related Links

Times and Time Zones

All times are in EDT time to prevent confusion due to time zone crossing. See the SLG1 flight status page for this flight to view local times or setup timezone preferences in your user account.

Time Position Orientation Groundspeed Altitude Reporting Facility
EDT Latitude Longitude Course Direction KTS MPH feet Rate Location/Type
10:30PM 50.4333 -107.6500 21° North 160 184 9,600  Level Winnipeg Center
10:35PM 50.6833 -107.5000 18° North 210 242 16,900 1,200 Climbing Winnipeg Center
10:36PM 50.7500 -107.4667 14° North 260 299 16,900  Level Winnipeg Center
10:37PM 50.8333 -107.4333 17° North 280 322 16,900  Level Winnipeg Center
10:38PM 50.9000 -107.4000 25° Northeast 280 322 16,900  Level Winnipeg Center
10:39PM 50.9667 -107.3500 14° North 280 322 16,900  Level Winnipeg Center
10:40PM 51.0500 -107.3167 14° North 280 322 16,900  Level Winnipeg Center
10:41PM 51.1333 -107.2833 17° North 280 322 16,900  Level Winnipeg Center
10:42PM 51.2000 -107.2500 25° Northeast 280 322 16,900  Level Winnipeg Center
10:43PM 51.2667 -107.2000 17° North 280 322 16,900  Level Winnipeg Center
10:44PM 51.3333 -107.1667 17° North 280 322 16,900 -480 Level Winnipeg Center
10:45PM 51.4333 -107.1167 25° Northeast 290 334 16,000 -1,140 Descending Winnipeg Center
10:46PM 51.5000 -107.0667 14° North 300 345 14,700 -1,320 Descending Winnipeg Center
10:47PM 51.5833 -107.0333 17° North 290 334 13,400 -1,320 Descending Winnipeg Center
10:48PM 51.6500 -107.0000 32° Northeast 280 322 12,100 -1,500 Descending Winnipeg Center
10:49PM 51.7167 -106.9333 25° Northeast 270 311 10,400 -1,680 Descending Winnipeg Center
10:50PM 51.7833 -106.8833 22° Northeast 240 276 8,800 -1,380 Descending Winnipeg Center
10:51PM 51.8333 -106.8500 25° Northeast 240 276 7,700 -1,080 Descending Winnipeg Center
10:52PM 51.9000 -106.8000 22° Northeast 230 265 6,700 -960 Descending Winnipeg Center
10:53PM 51.9500 -106.7667 25° Northeast 220 253 5,800 -1,020 Descending Winnipeg Center
10:54PM 52.0167 -106.7167 17° North 220 253 4,700 -1,140 Descending Winnipeg Center
10:55PM 52.0500 -106.7000 348° North 200 230 3,600 -1,020 Descending Winnipeg Center
10:56PM 52.1000 -106.7167 360° North 150 173 2,700 -780 Descending Winnipeg Center
10:57PM 52.1333 -106.7167 328° Northwest 120 138 2,100 -540 Descending Winnipeg Center
10:58PM 52.1500 -106.7333 328° Northwest 90 104 1,700 -420 Descending Winnipeg Center